Time;durP1;ratioP1;P1;durP2;ratioP2;P2;SDS_P1;SDS_P2;PMS_P1;PMS_P2;Temp;Humidity;BMP_temperature;BMP_pressure;BME280_temperature;BME280_humidity;BME280_pressure;Samples;Min_cycle;Max_cycle;Signal;HPM_P1;HPM_P2
2023/07/24 00:00:06;;;;;;;52.78;48.67;;;;;;;18.65;100.00;101183.28;5059958;28;20048;-77
2023/07/24 00:02:34;;;;;;;51.33;47.08;;;;;;;18.67;100.00;101179.28;5061549;28;20045;-76
2023/07/24 00:05:01;;;;;;;47.55;43.75;;;;;;;18.61;100.00;101184.84;5060452;28;20040;-77
2023/07/24 00:07:28;;;;;;;41.47;37.78;;;;;;;18.14;100.00;101177.97;5063053;28;20068;-77
2023/07/24 00:09:56;;;;;;;45.33;40.95;;;;;;;17.95;100.00;101184.66;5057673;28;20044;-79
2023/07/24 00:12:23;;;;;;;44.40;40.50;;;;;;;18.51;100.00;101188.19;5057237;28;20517;-78
2023/07/24 00:14:50;;;;;;;42.60;38.63;;;;;;;18.31;100.00;101177.97;5053881;28;20520;-77
2023/07/24 00:17:17;;;;;;;49.97;45.58;;;;;;;18.27;100.00;101184.88;5061239;28;20495;-78
2023/07/24 00:19:45;;;;;;;50.83;46.50;;;;;;;18.59;100.00;101187.78;5062304;28;20102;-77
2023/07/24 00:22:12;;;;;;;42.00;38.20;;;;;;;18.65;100.00;101184.09;5064648;28;20056;-77
2023/07/24 00:24:38;;;;;;;43.38;39.40;;;;;;;18.19;100.00;101193.38;5066335;28;20044;-77
2023/07/24 00:27:06;;;;;;;40.70;36.88;;;;;;;18.55;100.00;101181.28;5060583;28;20049;-79
2023/07/24 00:29:32;;;;;;;44.53;40.58;;;;;;;18.38;100.00;101175.91;5062836;28;20044;-79
2023/07/24 00:31:59;;;;;;;41.03;37.13;;;;;;;18.01;100.00;101181.00;5062225;28;20107;-77
2023/07/24 00:34:26;;;;;;;46.67;42.53;;;;;;;18.14;100.00;101183.34;5065472;28;20053;-77
2023/07/24 00:36:55;;;;;;;38.80;35.22;;;;;;;18.35;100.00;101184.47;5061811;28;20052;-77
2023/07/24 00:39:21;;;;;;;39.95;36.25;;;;;;;17.77;100.00;101186.50;5062612;28;20428;-79
2023/07/24 00:41:48;;;;;;;40.83;37.00;;;;;;;18.16;100.00;101181.25;5068637;28;20049;-79
2023/07/24 00:44:15;;;;;;;38.78;35.08;;;;;;;17.99;100.00;101181.22;5057606;28;20045;-79
2023/07/24 00:46:42;;;;;;;40.30;36.40;;;;;;;17.66;100.00;101183.84;5062377;28;20052;-79
2023/07/24 00:49:10;;;;;;;44.95;40.78;;;;;;;17.84;100.00;101184.47;5060876;28;20056;-79
2023/07/24 00:51:37;;;;;;;50.53;46.03;;;;;;;17.86;100.00;101181.56;5061349;28;20477;-79
2023/07/24 00:54:06;;;;;;;47.65;43.35;;;;;;;17.69;100.00;101178.81;5061940;28;20052;-78
2023/07/24 00:56:34;;;;;;;42.28;38.45;;;;;;;18.21;100.00;101186.66;5062057;28;20044;-78
2023/07/24 00:59:02;;;;;;;49.28;44.88;;;;;;;18.15;100.00;101187.66;5061732;28;20047;-79
2023/07/24 01:01:29;;;;;;;50.10;45.80;;;;;;;17.89;100.00;101175.69;5063144;28;20072;-79
2023/07/24 01:03:58;;;;;;;46.45;42.30;;;;;;;17.80;100.00;101171.78;5062394;28;20543;-79
2023/07/24 01:06:25;;;;;;;46.22;42.08;;;;;;;17.82;100.00;101172.34;5059779;28;20040;-79
2023/07/24 01:08:52;;;;;;;57.58;52.88;;;;;;;17.91;100.00;101170.88;5060375;28;20056;-79
2023/07/24 01:11:25;;;;;;;50.88;46.45;;;;;;;17.72;100.00;101164.09;5058668;28;20060;-79
2023/07/24 01:13:57;;;;;;;49.03;44.63;;;;;;;17.76;100.00;101166.06;5062397;28;20048;-79
2023/07/24 01:16:34;;;;;;;47.60;43.60;;;;;;;18.04;100.00;101170.56;5059214;28;20041;-78
2023/07/24 01:19:02;;;;;;;47.15;42.85;;;;;;;18.20;100.00;101174.31;5059820;28;20049;-79
2023/07/24 01:21:40;;;;;;;47.65;43.47;;;;;;;18.04;100.00;101162.50;5060898;28;20440;-78
2023/07/24 01:24:24;;;;;;;43.92;39.83;;;;;;;17.99;100.00;101170.47;5057646;28;20056;-79
2023/07/24 01:26:52;;;;;;;43.10;39.40;;;;;;;17.73;100.00;101168.38;5059557;28;20049;-79
2023/07/24 01:29:19;;;;;;;42.90;39.08;;;;;;;17.92;100.00;101166.34;5063929;28;20047;-79
2023/07/24 01:31:46;;;;;;;41.13;37.55;;;;;;;17.29;100.00;101170.81;5063294;28;20428;-79
2023/07/24 01:34:13;;;;;;;45.58;41.25;;;;;;;16.93;100.00;101178.97;5060483;28;20044;-79
2023/07/24 01:36:40;;;;;;;49.10;44.75;;;;;;;17.90;100.00;101174.63;5060660;28;20053;-79
2023/07/24 01:39:07;;;;;;;45.13;41.22;;;;;;;17.96;100.00;101180.91;5061895;28;20045;-79
2023/07/24 01:41:34;;;;;;;50.70;46.33;;;;;;;17.95;100.00;101181.97;5065421;28;20045;-79
2023/07/24 01:44:06;;;;;;;45.13;41.28;;;;;;;17.94;100.00;101174.94;5057206;28;20102;-79
2023/07/24 01:46:33;;;;;;;44.60;40.47;;;;;;;17.54;100.00;101182.03;5061398;28;20044;-79
2023/07/24 01:49:00;;;;;;;48.30;43.90;;;;;;;17.62;100.00;101178.16;5063037;28;20429;-78
2023/07/24 01:51:26;;;;;;;42.63;38.40;;;;;;;17.79;100.00;101178.19;5058840;28;20534;-79
2023/07/24 01:53:53;;;;;;;40.38;36.45;;;;;;;17.91;100.00;101178.13;5057646;28;20084;-79
2023/07/24 01:56:20;;;;;;;39.58;35.65;;;;;;;18.01;100.00;101181.00;5062071;28;20049;-78
2023/07/24 01:58:47;;;;;;;38.95;35.05;;;;;;;17.67;100.00;101189.00;5061308;28;20067;-78
2023/07/24 02:01:15;;;;;;;37.08;33.58;;;;;;;17.82;100.00;101177.72;5064727;28;20051;-78
2023/07/24 02:03:42;;;;;;;42.35;38.45;;;;;;;18.01;100.00;101173.75;5059673;28;20216;-78
2023/07/24 02:06:09;;;;;;;47.63;43.40;;;;;;;17.70;100.00;101180.44;5065192;28;20056;-78
2023/07/24 02:08:36;;;;;;;50.05;45.70;;;;;;;17.89;100.00;101174.88;5059969;28;20041;-78
2023/07/24 02:11:04;;;;;;;44.55;40.15;;;;;;;18.12;100.00;101181.97;5056135;28;20048;-78
2023/07/24 02:13:31;;;;;;;50.00;45.80;;;;;;;18.05;100.00;101182.13;5060544;28;20049;-78
2023/07/24 02:15:58;;;;;;;54.72;50.00;;;;;;;18.01;100.00;101181.00;5056165;28;20094;-78
2023/07/24 02:18:29;;;;;;;55.95;51.15;;;;;;;17.84;100.00;101178.28;5065544;28;20048;-78
2023/07/24 02:20:56;;;;;;;47.70;43.60;;;;;;;17.60;100.00;101178.38;5062791;28;20052;-78
2023/07/24 02:23:22;;;;;;;44.63;40.50;;;;;;;17.40;100.00;101178.84;5060745;28;20106;-78
2023/07/24 02:25:52;;;;;;;44.40;40.30;;;;;;;17.49;100.00;101189.16;5063230;28;20516;-77
2023/07/24 02:28:19;;;;;;;42.20;38.35;;;;;;;17.22;100.00;101187.09;5058268;28;20041;-78
2023/07/24 02:30:47;;;;;;;45.00;40.70;;;;;;;17.08;100.00;101197.25;5060497;28;20048;-78
2023/07/24 02:33:14;;;;;;;54.45;49.88;;;;;;;17.05;100.00;101202.28;5057672;28;20054;-77
2023/07/24 02:35:43;;;;;;;54.58;49.70;;;;;;;17.52;100.00;101197.59;5060031;28;20512;-78
2023/07/24 02:38:10;;;;;;;55.50;50.78;;;;;;;17.55;100.00;101204.31;5060178;28;20059;-78
2023/07/24 02:40:37;;;;;;;46.67;42.38;;;;;;;17.36;100.00;101212.56;5062434;28;20686;-79
2023/07/24 02:43:04;;;;;;;40.28;36.50;;;;;;;17.70;100.00;101211.84;5060506;28;20044;-78
2023/07/24 02:45:31;;;;;;;38.95;35.42;;;;;;;17.58;100.00;101217.31;5058417;28;20055;-78
2023/07/24 02:47:57;;;;;;;46.08;42.03;;;;;;;17.59;100.00;101209.00;5059841;28;20040;-78
2023/07/24 02:50:24;;;;;;;41.15;37.35;;;;;;;17.10;100.00;101207.78;5054774;28;20432;-78
2023/07/24 02:52:53;;;;;;;40.63;36.85;;;;;;;17.02;100.00;101214.31;5057634;28;20452;-77
2023/07/24 02:55:19;;;;;;;37.67;34.25;;;;;;;17.09;100.00;101200.75;5060807;28;20044;-78
2023/07/24 02:57:46;;;;;;;33.92;30.60;;;;;;;16.66;100.00;101200.09;5061148;28;20130;-78
2023/07/24 03:00:14;;;;;;;34.60;31.30;;;;;;;17.34;100.00;101190.53;5058353;28;20044;-78
2023/07/24 03:02:41;;;;;;;34.95;31.55;;;;;;;17.55;100.00;101189.06;5063650;28;20048;-78
2023/07/24 03:05:08;;;;;;;36.28;33.15;;;;;;;17.41;100.00;101185.00;5059571;28;20052;-78
2023/07/24 03:07:36;;;;;;;35.47;32.08;;;;;;;16.89;100.00;101193.91;5059408;28;20045;-78
2023/07/24 03:10:05;;;;;;;36.58;32.97;;;;;;;16.82;100.00;101195.09;5061400;28;20479;-79
2023/07/24 03:12:32;;;;;;;37.13;33.85;;;;;;;16.81;100.00;101196.97;5058205;28;20048;-79
2023/07/24 03:14:59;;;;;;;37.55;34.25;;;;;;;17.13;100.00;101192.00;5056589;28;20049;-79
2023/07/24 03:17:25;;;;;;;34.80;31.05;;;;;;;17.22;100.00;101189.75;5052805;28;20057;-79
2023/07/24 03:19:52;;;;;;;32.55;29.75;;;;;;;17.44;100.00;101187.22;5058222;28;20040;-79
2023/07/24 03:22:19;;;;;;;31.85;29.05;;;;;;;17.22;100.00;101192.44;5058340;28;20052;-79
2023/07/24 03:24:46;;;;;;;31.33;28.52;;;;;;;17.35;100.00;101192.16;5057328;28;20059;-79
2023/07/24 03:27:14;;;;;;;34.65;31.33;;;;;;;17.53;100.00;101190.34;5060984;28;20040;-79
2023/07/24 03:29:41;;;;;;;32.67;29.85;;;;;;;17.62;100.00;101194.28;5058742;28;20052;-79
2023/07/24 03:32:08;;;;;;;33.10;30.10;;;;;;;17.54;100.00;101189.28;5058385;28;20068;-79
2023/07/24 03:34:35;;;;;;;34.25;31.20;;;;;;;17.17;100.00;101185.09;5054096;28;20497;-79
2023/07/24 03:37:02;;;;;;;35.55;32.33;;;;;;;16.71;100.00;101180.63;5058114;28;20061;-79
2023/07/24 03:39:29;;;;;;;35.60;32.50;;;;;;;17.27;100.00;101189.03;5061236;28;20072;-79
2023/07/24 03:41:56;;;;;;;35.40;32.40;;;;;;;17.75;100.00;101177.84;5066988;28;20048;-79
2023/07/24 03:44:24;;;;;;;35.05;32.13;;;;;;;17.80;100.00;101186.03;5055473;28;20048;-79
2023/07/24 03:46:51;;;;;;;34.35;31.45;;;;;;;17.90;100.00;101180.00;5065656;28;20574;-79
2023/07/24 03:49:18;;;;;;;34.65;31.48;;;;;;;18.07;100.00;101177.34;5052928;28;20462;-78
2023/07/24 03:51:45;;;;;;;37.70;34.50;;;;;;;18.23;100.00;101189.13;5060539;28;20048;-77
2023/07/24 03:54:12;;;;;;;37.25;34.17;;;;;;;18.23;100.00;101187.25;5071916;28;20795;-79
2023/07/24 03:56:39;;;;;;;34.13;31.13;;;;;;;18.38;100.00;101186.66;5062116;28;20045;-79
2023/07/24 03:59:06;;;;;;;35.42;32.47;;;;;;;18.36;100.00;101185.28;5064892;28;20057;-77
2023/07/24 04:01:35;;;;;;;36.08;32.90;;;;;;;18.19;100.00;101183.44;5071494;28;20040;-79
2023/07/24 04:04:03;;;;;;;37.78;34.53;;;;;;;18.64;100.00;101185.16;5063372;28;20055;-78
2023/07/24 04:06:29;;;;;;;39.42;35.92;;;;;;;18.88;100.00;101179.56;5066279;28;20460;-79
2023/07/24 04:08:56;;;;;;;38.47;35.13;;;;;;;18.69;100.00;101179.84;5057926;28;20420;-79
2023/07/24 04:11:23;;;;;;;41.47;37.78;;;;;;;18.94;100.00;101176.72;5066168;28;20535;-79
2023/07/24 04:13:50;;;;;;;40.60;37.10;;;;;;;19.15;100.00;101180.47;5063760;28;20049;-79
2023/07/24 04:16:17;;;;;;;39.10;35.80;;;;;;;19.14;100.00;101178.00;5061381;28;20049;-79
2023/07/24 04:18:45;;;;;;;39.63;36.42;;;;;;;19.23;100.00;101180.00;5067877;28;20055;-79
2023/07/24 04:21:12;;;;;;;39.03;35.72;;;;;;;19.31;100.00;101173.38;5072525;28;20048;-79
2023/07/24 04:23:38;;;;;;;38.22;35.00;;;;;;;19.39;100.00;101166.69;5072890;28;20075;-79
2023/07/24 04:26:05;;;;;;;37.05;34.25;;;;;;;19.57;100.00;101182.50;5072383;28;20048;-79
2023/07/24 04:28:32;;;;;;;40.92;37.53;;;;;;;19.59;100.00;101179.56;5072395;28;20055;-79
2023/07/24 04:31:01;;;;;;;36.30;33.40;;;;;;;19.68;100.00;101172.69;5072668;28;20456;-79
2023/07/24 04:33:28;;;;;;;39.65;36.53;;;;;;;19.89;100.00;101174.47;5066208;28;20474;-79
2023/07/24 04:35:57;;;;;;;39.22;36.03;;;;;;;19.88;100.00;101174.75;5072397;28;20641;-79
2023/07/24 04:38:24;;;;;;;34.65;31.83;;;;;;;19.95;100.00;101180.75;5072226;28;20048;-79
2023/07/24 04:40:50;;;;;;;35.40;32.55;;;;;;;19.95;100.00;101179.94;5062561;28;20496;-79
2023/07/24 04:43:17;;;;;;;33.67;31.08;;;;;;;20.11;100.00;101182.47;5061598;28;20475;-78
2023/07/24 04:45:44;;;;;;;33.38;30.63;;;;;;;20.19;100.00;101186.59;5063303;28;20076;-78
2023/07/24 04:48:13;;;;;;;35.63;32.60;;;;;;;20.32;100.00;101185.31;5068254;28;20044;-77
2023/07/24 04:50:40;;;;;;;36.10;32.88;;;;;;;20.47;100.00;101187.31;5072590;28;20045;-78
2023/07/24 04:53:08;;;;;;;34.28;31.48;;;;;;;20.56;100.00;101181.19;5071647;28;20048;-78
2023/07/24 04:55:35;;;;;;;34.70;31.92;;;;;;;20.75;100.00;101184.25;5072142;28;20059;-77
2023/07/24 04:58:02;;;;;;;33.42;30.65;;;;;;;20.72;100.00;101179.38;5072443;28;20059;-78
2023/07/24 05:00:29;;;;;;;34.38;31.45;;;;;;;20.84;100.00;101186.44;5071979;28;20049;-78
2023/07/24 05:02:56;;;;;;;34.67;31.88;;;;;;;20.90;100.00;101185.41;5070458;28;20050;-77
2023/07/24 05:05:23;;;;;;;33.80;30.92;;;;;;;21.13;100.00;101182.25;5071292;28;20048;-78
2023/07/24 05:07:49;;;;;;;33.97;31.27;;;;;;;21.24;100.00;101178.53;5072108;28;20056;-78
2023/07/24 05:10:18;;;;;;;34.50;31.70;;;;;;;21.46;100.00;101175.63;5071659;28;20055;-77
2023/07/24 05:12:45;;;;;;;33.05;30.50;;;;;;;21.37;100.00;101173.72;5071371;28;20500;-78
2023/07/24 05:15:12;;;;;;;35.45;32.80;;;;;;;21.71;100.00;101164.03;5065675;28;20063;-77
2023/07/24 05:17:38;;;;;;;33.70;31.00;;;;;;;21.72;100.00;101164.81;5064259;28;20509;-78
2023/07/24 05:20:07;;;;;;;30.48;28.20;;;;;;;22.31;100.00;101161.59;5060024;28;20067;-78
2023/07/24 05:22:34;;;;;;;33.83;31.23;;;;;;;22.13;100.00;101167.53;5062750;28;20492;-79
2023/07/24 05:25:01;;;;;;;32.55;30.02;;;;;;;22.13;100.00;101154.81;5060320;28;20480;-78
2023/07/24 05:27:29;;;;;;;34.40;31.55;;;;;;;22.23;100.00;101158.63;5059442;28;20048;-79
2023/07/24 05:29:56;;;;;;;33.45;30.90;;;;;;;22.34;100.00;101160.22;5071080;28;20515;-79
2023/07/24 05:32:23;;;;;;;32.50;29.95;;;;;;;22.66;100.00;101159.84;5070198;28;20040;-79
2023/07/24 05:34:50;;;;;;;31.70;29.40;;;;;;;22.70;100.00;101157.44;5070661;28;20044;-79
2023/07/24 05:37:17;;;;;;;30.52;28.23;;;;;;;22.96;100.00;101153.53;5063643;28;20067;-79
2023/07/24 05:39:44;;;;;;;31.95;29.52;;;;;;;23.13;100.00;101160.50;5059424;28;20514;-79
2023/07/24 05:42:11;;;;;;;31.17;28.80;;;;;;;23.06;100.00;101150.78;5058136;28;20051;-79
2023/07/24 05:44:39;;;;;;;30.50;28.05;;;;;;;23.27;100.00;101145.28;5053801;28;20102;-78
2023/07/24 05:47:06;;;;;;;30.17;27.85;;;;;;;23.28;100.00;101144.97;5061440;28;20048;-78
2023/07/24 05:49:33;;;;;;;28.55;26.25;;;;;;;23.27;100.00;101143.38;5059604;28;20509;-77
2023/07/24 05:52:00;;;;;;;29.77;27.52;;;;;;;23.39;100.00;101150.31;5059200;28;20055;-78
2023/07/24 05:54:27;;;;;;;28.92;26.65;;;;;;;23.68;100.00;101147.69;5064197;28;20056;-78
2023/07/24 05:56:53;;;;;;;28.05;25.85;;;;;;;23.83;100.00;101149.50;5059195;28;20067;-79
2023/07/24 05:59:20;;;;;;;26.15;24.00;;;;;;;23.92;100.00;101150.50;5061876;28;20059;-79
2023/07/24 06:01:49;;;;;;;26.92;24.70;;;;;;;24.26;100.00;101136.06;5062325;28;20045;-79
2023/07/24 06:04:15;;;;;;;26.45;24.35;;;;;;;24.20;100.00;101135.28;5064429;28;20448;-78
2023/07/24 06:06:42;;;;;;;27.08;24.98;;;;;;;24.34;100.00;101136.22;5065591;28;20413;-79
2023/07/24 06:09:09;;;;;;;25.90;23.67;;;;;;;24.61;100.00;101135.69;5065334;28;20052;-78
2023/07/24 06:11:36;;;;;;;26.23;23.73;;;;;;;24.67;100.00;101131.81;5060780;28;20056;-78
2023/07/24 06:14:03;;;;;;;26.13;23.92;;;;;;;24.46;100.00;101133.16;5067568;28;20064;-79
2023/07/24 06:16:29;;;;;;;24.92;23.00;;;;;;;24.74;100.00;101136.88;5067310;28;20551;-78
2023/07/24 06:18:58;;;;;;;25.95;23.45;;;;;;;24.92;100.00;101132.56;5062487;28;20044;-78
2023/07/24 06:21:24;;;;;;;25.70;23.23;;;;;;;24.99;100.00;101132.22;5066437;28;20550;-77
2023/07/24 06:23:51;;;;;;;23.85;21.95;;;;;;;25.23;100.00;101127.53;5059624;28;20075;-78
2023/07/24 06:26:18;;;;;;;24.38;22.38;;;;;;;25.42;100.00;101124.00;5066460;28;20044;-78
2023/07/24 06:28:45;;;;;;;24.33;22.40;;;;;;;25.75;100.00;101114.78;5058648;28;20052;-77
2023/07/24 06:31:14;;;;;;;23.42;21.58;;;;;;;25.59;100.00;101108.75;5058783;28;20523;-79
2023/07/24 06:33:44;;;;;;;22.75;21.05;;;;;;;25.80;100.00;101116.59;5057554;28;20049;-77
2023/07/24 06:36:13;;;;;;;23.80;22.00;;;;;;;25.56;100.00;101125.69;5062162;28;20049;-78
2023/07/24 06:38:42;;;;;;;23.70;21.98;;;;;;;26.10;100.00;101117.19;5066315;28;20094;-78
2023/07/24 06:41:09;;;;;;;23.70;21.75;;;;;;;26.22;100.00;101114.78;5062160;28;20072;-78
2023/07/24 06:43:36;;;;;;;21.80;20.20;;;;;;;26.30;100.00;101118.72;5058795;28;20053;-78
2023/07/24 06:46:03;;;;;;;22.00;20.30;;;;;;;26.50;100.00;101121.84;5063726;28;20063;-78
2023/07/24 06:48:29;;;;;;;22.27;20.58;;;;;;;26.31;100.00;101121.13;5054425;28;20489;-78
2023/07/24 06:50:56;;;;;;;23.48;21.58;;;;;;;26.78;100.00;101115.56;5054299;28;20037;-78
2023/07/24 06:53:24;;;;;;;23.70;21.80;;;;;;;27.30;100.00;101116.88;5054486;28;20062;-78
2023/07/24 06:55:52;;;;;;;23.00;21.10;;;;;;;26.71;100.00;101119.50;5059431;28;20045;-79
2023/07/24 06:58:20;;;;;;;23.00;21.17;;;;;;;27.01;100.00;101125.41;5061175;28;20048;-79
2023/07/24 07:00:47;;;;;;;26.80;24.67;;;;;;;27.22;100.00;101122.25;5062097;28;20045;-78
2023/07/24 07:03:14;;;;;;;26.42;24.42;;;;;;;27.37;100.00;101122.72;5057475;28;20048;-78
2023/07/24 07:05:44;;;;;;;23.20;21.30;;;;;;;27.37;100.00;101125.44;5062156;28;20053;-79
2023/07/24 07:08:11;;;;;;;23.23;21.25;;;;;;;27.49;100.00;101111.25;5057497;28;20128;-78
2023/07/24 07:10:39;;;;;;;23.40;21.50;;;;;;;27.68;100.00;101110.22;5058032;28;20071;-78
2023/07/24 07:13:06;;;;;;;22.02;20.23;;;;;;;27.87;100.00;101099.97;5063709;28;20041;-78
2023/07/24 07:15:33;;;;;;;21.63;19.83;;;;;;;28.30;100.00;101094.66;5059224;28;20645;-78
2023/07/24 07:18:00;;;;;;;22.55;20.65;;;;;;;28.53;100.00;101094.59;5057222;28;20036;-78
2023/07/24 07:20:27;;;;;;;23.27;21.52;;;;;;;28.22;100.00;101092.69;5061513;28;20492;-78
2023/07/24 07:22:53;;;;;;;22.73;20.92;;;;;;;27.23;100.00;101097.41;5058112;28;20452;-78
2023/07/24 07:25:26;;;;;;;24.17;22.38;;;;;;;27.87;100.00;101097.22;5063022;28;20052;-78
2023/07/24 07:27:53;;;;;;;;;;;;;;;28.00;100.00;101093.59;5065556;28;20044;-78
2023/07/24 07:30:20;;;;;;;24.15;22.15;;;;;;;28.46;100.00;101088.78;5062190;28;20384;-78
2023/07/24 07:32:48;;;;;;;23.10;21.30;;;;;;;28.61;100.00;101085.63;5061437;28;20182;-78
2023/07/24 07:35:15;;;;;;;22.63;20.95;;;;;;;28.76;100.00;101095.28;5061340;28;20135;-78
2023/07/24 07:37:42;;;;;;;21.70;20.10;;;;;;;28.96;100.00;101088.41;5060607;28;20073;-78
2023/07/24 07:40:13;;;;;;;24.25;22.42;;;;;;;28.70;100.00;101086.44;5060684;28;20087;-78
2023/07/24 07:42:44;;;;;;;24.38;22.67;;;;;;;28.66;100.00;101079.22;5058499;28;21225;-78
2023/07/24 07:45:16;;;;;;;23.33;21.52;;;;;;;28.79;100.00;101075.50;5062331;28;20419;-79
2023/07/24 07:47:42;;;;;;;23.50;21.80;;;;;;;28.87;100.00;101073.94;5059133;28;20049;-78
2023/07/24 07:50:12;;;;;;;21.83;20.25;;;;;;;29.27;100.00;101071.84;5056608;28;20436;-78
2023/07/24 07:52:40;;;;;;;25.50;23.60;;;;;;;29.13;100.00;101073.94;5062948;28;20051;-78
2023/07/24 07:55:08;;;;;;;25.67;23.88;;;;;;;29.16;100.00;101073.28;5057024;28;20122;-79
2023/07/24 07:57:35;;;;;;;23.08;21.38;;;;;;;29.74;100.00;101063.69;5059078;28;20560;-79
2023/07/24 08:00:02;;;;;;;25.20;22.90;;;;;;;29.77;100.00;101062.25;5057947;28;20138;-79
2023/07/24 08:02:31;;;;;;;24.63;22.83;;;;;;;29.77;100.00;101054.84;5058764;28;20496;-78
2023/07/24 08:04:59;;;;;;;22.67;20.90;;;;;;;30.45;100.00;101046.66;5060921;28;20056;-78
2023/07/24 08:07:26;;;;;;;23.85;21.60;;;;;;;30.44;100.00;101058.75;5058698;28;20077;-78
2023/07/24 08:09:52;;;;;;;22.83;21.08;;;;;;;30.22;100.00;101054.34;5058474;28;20040;-78
2023/07/24 08:12:19;;;;;;;25.55;23.55;;;;;;;29.66;100.00;101048.13;5053722;28;20515;-78
2023/07/24 08:14:46;;;;;;;25.77;23.85;;;;;;;30.04;100.00;101045.38;5058360;28;20123;-78
2023/07/24 08:17:13;;;;;;;25.20;23.40;;;;;;;29.43;100.00;101042.03;5051957;28;20053;-78
2023/07/24 08:19:42;;;;;;;25.02;23.13;;;;;;;29.44;100.00;101047.19;5059451;28;20055;-78
2023/07/24 08:22:08;;;;;;;25.70;23.45;;;;;;;29.69;100.00;101033.78;5058470;28;20497;-78
2023/07/24 08:24:36;;;;;;;26.35;24.35;;;;;;;30.09;100.00;101036.19;5060283;28;20048;-78
2023/07/24 08:27:03;;;;;;;24.70;22.70;;;;;;;30.35;100.00;101036.88;5063334;28;20056;-78
2023/07/24 08:29:30;;;;;;;24.30;22.40;;;;;;;30.74;100.00;101032.09;5059865;28;20041;-78
2023/07/24 08:31:57;;;;;;;24.00;22.00;;;;;;;30.61;100.00;101041.38;5065903;28;20049;-78
2023/07/24 08:34:23;;;;;;;25.65;23.55;;;;;;;31.03;100.00;101036.69;5064860;28;20040;-78
2023/07/24 08:36:52;;;;;;;28.55;26.38;;;;;;;30.47;100.00;101038.06;5066097;28;20056;-78
2023/07/24 08:39:18;;;;;;;27.83;25.70;;;;;;;30.09;100.00;101031.50;5067012;28;20055;-79
2023/07/24 08:41:45;;;;;;;25.95;23.95;;;;;;;30.25;100.00;101023.56;5067135;28;20048;-79
2023/07/24 08:44:12;;;;;;;25.58;23.48;;;;;;;30.97;100.00;101026.28;5069485;28;20048;-78
2023/07/24 08:46:41;;;;;;;25.77;23.77;;;;;;;31.49;100.00;101025.75;5066281;28;20052;-78
2023/07/24 08:49:12;;;;;;;25.67;23.58;;;;;;;31.55;100.00;101015.38;5069112;28;20479;-78
2023/07/24 08:51:43;;;;;;;24.52;22.48;;;;;;;32.07;100.00;101029.25;5067319;28;20132;-78
2023/07/24 08:54:12;;;;;;;24.17;22.17;;;;;;;30.83;100.00;101033.97;5061208;28;20072;-78
2023/07/24 08:56:41;;;;;;;24.73;22.63;;;;;;;30.65;100.00;101036.00;5060424;28;20526;-78
2023/07/24 08:59:08;;;;;;;28.00;25.73;;;;;;;30.97;100.00;101021.59;5057412;28;20045;-78
2023/07/24 09:01:35;;;;;;;26.25;24.45;;;;;;;30.80;100.00;101022.56;5059941;28;20049;-78
2023/07/24 09:04:02;;;;;;;27.08;25.08;;;;;;;31.05;100.00;101019.13;5058530;28;20151;-78
2023/07/24 09:06:29;;;;;;;26.75;24.60;;;;;;;31.09;100.00;101006.31;5058672;28;20048;-78
2023/07/24 09:08:55;;;;;;;26.05;24.15;;;;;;;31.09;100.00;101007.13;5061659;28;20053;-79
2023/07/24 09:11:24;;;;;;;27.02;25.13;;;;;;;30.69;100.00;101002.13;5056826;28;20104;-79
2023/07/24 09:13:51;;;;;;;25.85;24.05;;;;;;;31.66;100.00;100991.84;5060241;28;20044;-79
2023/07/24 09:16:25;;;;;;;26.65;24.70;;;;;;;31.65;99.35;100990.22;5061722;28;20053;-79
2023/07/24 09:18:53;;;;;;;25.45;23.70;;;;;;;31.75;95.76;100998.00;5062108;28;20058;-79
2023/07/24 09:21:29;;;;;;;26.70;24.70;;;;;;;32.01;93.79;100989.44;5058116;28;20111;-79
2023/07/24 09:23:56;;;;;;;25.40;23.70;;;;;;;31.23;100.00;101002.13;5061439;28;20135;-79
2023/07/24 09:26:25;;;;;;;27.50;25.60;;;;;;;31.22;95.94;100995.03;5055906;28;20489;-78
2023/07/24 09:28:55;;;;;;;26.30;24.30;;;;;;;31.69;100.00;100982.91;5061524;28;20559;-79
2023/07/24 09:31:22;;;;;;;26.67;24.58;;;;;;;31.20;100.00;100980.88;5058477;28;20044;-79
2023/07/24 09:33:49;;;;;;;25.23;23.30;;;;;;;31.77;87.00;100978.44;5059643;28;20056;-79
2023/07/24 09:36:15;;;;;;;24.45;22.45;;;;;;;31.50;95.13;100980.72;5057105;28;20559;-79
2023/07/24 09:38:43;;;;;;;24.40;22.48;;;;;;;31.69;88.70;100980.97;5060086;28;20059;-78
2023/07/24 09:41:11;;;;;;;24.60;22.73;;;;;;;31.75;87.33;100970.56;5058075;28;20490;-79
2023/07/24 09:43:44;;;;;;;25.30;23.40;;;;;;;32.93;79.11;100962.28;5062776;28;20087;-79
2023/07/24 09:46:11;;;;;;;25.02;23.02;;;;;;;33.04;77.72;100961.47;5063019;28;20084;-79
2023/07/24 09:48:39;;;;;;;27.80;25.80;;;;;;;32.35;72.46;100957.13;5060839;28;20087;-79
2023/07/24 09:51:05;;;;;;;25.42;23.63;;;;;;;32.76;67.46;100955.94;5058271;28;20130;-79
2023/07/24 09:53:35;;;;;;;29.90;27.90;;;;;;;32.74;69.06;100951.94;5056124;28;20048;-79
2023/07/24 09:56:04;;;;;;;27.70;25.70;;;;;;;32.85;68.76;100953.84;5061132;28;20044;-78
2023/07/24 09:58:34;;;;;;;26.85;24.95;;;;;;;32.35;93.44;100954.38;5055198;28;20437;-80
2023/07/24 10:01:03;;;;;;;27.52;25.63;;;;;;;32.46;83.14;100952.75;5062672;28;20052;-79
2023/07/24 10:03:32;;;;;;;26.48;24.58;;;;;;;33.70;72.25;100937.94;5057149;28;20140;-79
2023/07/24 10:05:58;;;;;;;26.25;24.45;;;;;;;33.27;86.66;100938.84;5058660;28;20068;-78
2023/07/24 10:08:26;;;;;;;26.77;24.73;;;;;;;32.56;84.28;100938.50;5059275;28;20622;-78
2023/07/24 10:10:53;;;;;;;28.05;25.88;;;;;;;32.84;90.18;100927.50;5060530;28;20064;-77
2023/07/24 10:13:22;;;;;;;27.88;25.67;;;;;;;33.61;72.66;100917.25;5055768;28;20072;-78
2023/07/24 10:15:49;;;;;;;27.40;25.50;;;;;;;32.97;90.95;100924.66;5056774;28;20045;-78
2023/07/24 10:18:18;;;;;;;27.88;25.92;;;;;;;33.36;85.04;100900.91;5061190;28;20052;-78
2023/07/24 10:20:46;;;;;;;28.13;25.92;;;;;;;33.30;82.03;100907.84;5059485;28;20121;-78
2023/07/24 10:23:19;;;;;;;29.52;27.40;;;;;;;34.04;74.92;100907.22;5060121;28;20103;-77
2023/07/24 10:25:47;;;;;;;29.00;26.90;;;;;;;34.55;62.33;100899.63;5054154;28;20067;-78
2023/07/24 10:28:16;;;;;;;29.85;27.65;;;;;;;33.40;66.50;100904.53;5055900;28;20044;-78
2023/07/24 10:30:55;;;;;;;30.05;27.85;;;;;;;33.33;67.62;100898.09;5059965;28;20052;-78
2023/07/24 10:33:23;;;;;;;30.85;28.45;;;;;;;32.40;96.63;100907.38;5061126;28;20048;-78
2023/07/24 10:35:54;;;;;;;28.48;26.30;;;;;;;33.30;84.35;100894.09;5058661;28;20532;-78
2023/07/24 10:38:34;;;;;;;29.17;26.98;;;;;;;32.74;71.01;100895.00;5062724;28;20041;-78
2023/07/24 10:41:03;;;;;;;27.73;25.73;;;;;;;32.49;87.95;100886.06;5054867;28;20041;-78
2023/07/24 10:43:40;;;;;;;28.58;26.38;;;;;;;33.13;53.96;100886.97;5060923;28;20045;-78
2023/07/24 10:46:07;;;;;;;28.50;26.30;;;;;;;33.14;82.79;100885.84;5055103;28;20048;-78
2023/07/24 10:48:35;;;;;;;29.92;27.83;;;;;;;33.38;66.78;100878.56;5061022;28;20436;-78
2023/07/24 10:51:08;;;;;;;29.20;27.05;;;;;;;34.29;61.35;100880.22;5065320;28;20049;-78
2023/07/24 10:53:36;;;;;;;28.42;26.27;;;;;;;33.67;62.45;100867.06;5060683;28;20051;-78
2023/07/24 10:56:02;;;;;;;28.63;26.33;;;;;;;32.59;69.17;100871.03;5065710;28;20114;-79
2023/07/24 10:58:31;;;;;;;28.10;25.80;;;;;;;31.77;100.00;100861.16;5059913;28;20036;-78
2023/07/24 11:00:58;;;;;;;27.38;25.17;;;;;;;33.07;76.69;100855.38;5066567;28;20052;-78
2023/07/24 11:03:26;;;;;;;28.88;26.38;;;;;;;33.07;93.97;100849.88;5060728;28;20048;-78